Time;durP1;ratioP1;P1;durP2;ratioP2;P2;SDS_P1;SDS_P2;PMS_P1;PMS_P2;Temp;Humidity;BMP_temperature;BMP_pressure;BME280_temperature;BME280_humidity;BME280_pressure;Samples;Min_cycle;Max_cycle;Signal;HPM_P1;HPM_P2
2024/01/24 00:02:18;;;;;;;46.03;20.97;;;;;;;0.06;83.03;101664.83;123556;1099;104178;-75
2024/01/24 00:04:49;;;;;;;40.43;20.10;;;;;;;0.03;83.29;101653.31;123541;1099;104273;-75
2024/01/24 00:07:20;;;;;;;45.10;21.33;;;;;;;0.01;83.14;101657.42;123642;1099;104245;-75
2024/01/24 00:09:51;;;;;;;46.13;21.53;;;;;;;-0.01;83.62;101665.92;123596;1098;104360;-74
2024/01/24 00:12:22;;;;;;;48.87;22.70;;;;;;;-0.06;83.24;101664.58;123564;1099;104245;-75
2024/01/24 00:14:53;;;;;;;47.23;22.07;;;;;;;-0.07;83.57;101670.48;123497;1099;104402;-74
2024/01/24 00:17:24;;;;;;;47.90;22.57;;;;;;;-0.06;83.12;101669.73;123541;1099;104240;-74
2024/01/24 00:19:56;;;;;;;43.33;21.37;;;;;;;-0.04;83.07;101669.89;123595;1098;104440;-74
2024/01/24 00:22:27;;;;;;;46.03;21.63;;;;;;;-0.06;83.39;101680.06;123619;1099;104374;-76
2024/01/24 00:24:58;;;;;;;45.40;21.23;;;;;;;-0.04;83.90;101691.42;123601;1099;104347;-76
2024/01/24 00:27:29;;;;;;;43.63;21.13;;;;;;;-0.02;83.16;101689.00;123628;1099;105178;-75
2024/01/24 00:30:01;;;;;;;41.27;20.33;;;;;;;-0.01;83.33;101699.47;123584;1098;104306;-75
2024/01/24 00:32:32;;;;;;;44.53;20.43;;;;;;;0.00;83.64;101697.82;123625;1099;104240;-74
2024/01/24 00:35:03;;;;;;;43.33;21.50;;;;;;;0.01;83.97;101691.88;123487;1099;104304;-74
2024/01/24 00:37:35;;;;;;;46.47;22.97;;;;;;;0.05;83.49;101682.75;123588;1099;104271;-74
2024/01/24 00:40:08;;;;;;;42.53;20.50;;;;;;;0.09;83.67;101674.55;123608;1099;104754;-75
2024/01/24 00:42:42;;;;;;;42.33;20.73;;;;;;;0.09;83.88;101674.55;123633;1098;104309;-75
2024/01/24 00:45:14;;;;;;;43.53;20.67;;;;;;;0.11;83.63;101665.27;123299;1099;104284;-76
2024/01/24 00:47:45;;;;;;;41.63;20.97;;;;;;;0.11;83.66;101657.53;123239;1099;104353;-75
2024/01/24 00:50:17;;;;;;;42.03;20.70;;;;;;;0.14;83.81;101662.98;123626;1099;104377;-76
2024/01/24 00:52:51;;;;;;;45.67;22.07;;;;;;;0.17;83.72;101659.05;123370;1099;104383;-75
2024/01/24 00:55:26;;;;;;;42.80;20.87;;;;;;;0.22;84.09;101661.14;123718;1099;104307;-75
2024/01/24 00:57:58;;;;;;;40.17;20.47;;;;;;;0.24;83.57;101670.86;123723;1099;104374;-75
2024/01/24 01:00:29;;;;;;;44.50;21.70;;;;;;;0.26;83.79;101665.84;123671;1099;104270;-75
2024/01/24 01:03:00;;;;;;;44.20;20.30;;;;;;;0.26;84.07;101665.84;123276;1099;104274;-75
2024/01/24 01:05:33;;;;;;;42.43;21.03;;;;;;;0.25;84.32;101656.27;123680;1099;104520;-75
2024/01/24 01:08:05;;;;;;;43.13;20.17;;;;;;;0.26;83.98;101650.35;123716;1098;106993;-75
2024/01/24 01:10:36;;;;;;;45.13;22.20;;;;;;;0.26;84.21;101642.61;123533;1099;104328;-75
2024/01/24 01:13:07;;;;;;;48.80;22.30;;;;;;;0.28;84.31;101642.00;123599;1098;104271;-76
2024/01/24 01:15:38;;;;;;;48.27;23.10;;;;;;;0.32;84.56;101636.34;123709;1099;104386;-75
2024/01/24 01:18:10;;;;;;;45.60;21.50;;;;;;;0.34;84.25;101629.67;123547;1099;118589;-75
2024/01/24 01:20:41;;;;;;;47.73;21.77;;;;;;;0.35;84.17;101640.91;123605;1099;104399;-75
2024/01/24 01:23:13;;;;;;;48.27;22.97;;;;;;;0.34;84.30;101637.42;123619;1099;104367;-75
2024/01/24 01:25:44;;;;;;;42.97;21.00;;;;;;;0.35;84.49;101635.73;123615;1099;104869;-76
2024/01/24 01:28:15;;;;;;;44.03;20.87;;;;;;;0.37;84.43;101636.78;123705;1099;104363;-75
2024/01/24 01:30:47;;;;;;;43.80;20.15;;;;;;;0.38;84.28;101633.45;123799;1099;104389;-75
2024/01/24 01:33:18;;;;;;;46.33;21.30;;;;;;;0.39;84.91;101630.11;123755;1099;104316;-75
2024/01/24 01:35:49;;;;;;;48.33;22.20;;;;;;;0.41;84.94;101635.42;123888;1099;104345;-75
2024/01/24 01:38:21;;;;;;;44.53;21.30;;;;;;;0.42;84.59;101614.91;123570;1099;104297;-74
2024/01/24 01:40:52;;;;;;;46.10;23.10;;;;;;;0.43;84.15;101616.70;123493;1099;104364;-75
2024/01/24 01:43:24;;;;;;;44.27;21.30;;;;;;;0.44;84.69;101613.37;123609;1099;104412;-75
2024/01/24 01:46:00;;;;;;;43.63;21.17;;;;;;;0.43;84.46;101611.54;123699;1098;104363;-75
2024/01/24 01:48:32;;;;;;;47.70;21.17;;;;;;;0.40;84.64;101612.94;123544;1099;104377;-75
2024/01/24 01:51:04;;;;;;;46.83;22.23;;;;;;;0.40;84.54;101625.84;123641;1099;104252;-75
2024/01/24 01:53:38;;;;;;;45.73;22.07;;;;;;;0.39;84.54;101626.59;123778;1099;104303;-75
2024/01/24 01:56:12;;;;;;;44.65;21.97;;;;;;;0.38;84.43;101623.12;123642;1099;104225;-75
2024/01/24 01:58:43;;;;;;;46.42;23.30;;;;;;;0.35;84.71;101617.66;123854;1099;104255;-75
2024/01/24 02:01:17;;;;;;;44.95;21.75;;;;;;;0.33;84.99;101617.52;123679;1099;104249;-75
2024/01/24 02:03:51;;;;;;;46.93;23.10;;;;;;;0.33;84.62;101617.52;123756;1099;104226;-75
2024/01/24 02:06:26;;;;;;;46.97;22.87;;;;;;;0.33;84.79;101614.04;123754;1099;104246;-75
2024/01/24 02:08:57;;;;;;;48.70;22.70;;;;;;;0.34;84.74;101606.44;123674;1099;104438;-75
2024/01/24 02:11:28;;;;;;;45.73;22.73;;;;;;;0.36;84.65;101606.58;123707;1099;104258;-75
2024/01/24 02:14:01;;;;;;;44.43;22.17;;;;;;;0.39;84.88;101608.52;123733;1099;104303;-75
2024/01/24 02:16:32;;;;;;;50.00;23.60;;;;;;;0.40;85.11;101600.02;123682;1099;104242;-75
2024/01/24 02:19:04;;;;;;;48.07;23.20;;;;;;;0.39;84.72;101609.45;123413;1099;104653;-75
2024/01/24 02:21:35;;;;;;;46.25;23.30;;;;;;;0.33;84.88;101609.77;123674;1099;104380;-75
2024/01/24 02:24:12;;;;;;;48.63;24.33;;;;;;;0.32;84.56;101619.95;123615;1099;104275;-75
2024/01/24 02:26:43;;;;;;;46.57;23.70;;;;;;;0.31;84.75;101613.89;123641;1099;104271;-75
2024/01/24 02:29:15;;;;;;;48.27;24.70;;;;;;;0.17;84.85;101598.75;123773;1099;104666;-75
2024/01/24 02:31:46;;;;;;;43.37;22.50;;;;;;;0.23;84.70;101627.72;123666;1099;104396;-75
2024/01/24 02:34:17;;;;;;;45.83;22.57;;;;;;;0.18;84.86;101613.48;123852;1099;104444;-75
2024/01/24 02:36:48;;;;;;;45.17;22.73;;;;;;;0.16;84.71;101604.70;123912;1099;104245;-76
2024/01/24 02:39:20;;;;;;;45.30;22.10;;;;;;;0.11;84.82;101595.58;124003;1099;104319;-75
2024/01/24 02:41:51;;;;;;;44.73;22.37;;;;;;;0.08;84.51;101588.48;123955;1098;104277;-75
2024/01/24 02:44:22;;;;;;;46.03;22.57;;;;;;;0.07;84.90;101601.23;123963;1099;104223;-76
2024/01/24 02:46:53;;;;;;;48.13;23.13;;;;;;;0.05;85.09;101595.00;123716;1099;104731;-75
2024/01/24 02:49:25;;;;;;;45.20;22.95;;;;;;;0.08;85.15;101610.78;123532;1099;104297;-76
2024/01/24 02:52:01;;;;;;;45.43;21.87;;;;;;;0.10;84.86;101610.17;123620;1099;104638;-75
2024/01/24 02:54:32;;;;;;;46.70;22.70;;;;;;;0.14;85.06;101601.03;123664;1099;104284;-75
2024/01/24 02:57:04;;;;;;;45.50;23.40;;;;;;;0.15;84.59;101605.45;123753;1099;104281;-75
2024/01/24 02:59:35;;;;;;;45.47;22.33;;;;;;;0.13;84.83;101622.47;123658;1098;104268;-75
2024/01/24 03:02:07;;;;;;;46.73;22.73;;;;;;;0.06;84.82;101613.21;123693;1099;104354;-76
2024/01/24 03:04:38;;;;;;;41.30;20.90;;;;;;;0.02;84.72;101608.55;123434;1099;104434;-75
2024/01/24 03:07:09;;;;;;;44.10;21.47;;;;;;;-0.04;84.81;101605.38;123603;1099;104274;-75
2024/01/24 03:09:40;;;;;;;41.83;21.10;;;;;;;-0.06;84.61;101602.64;123810;1099;104245;-75
2024/01/24 03:12:13;;;;;;;45.53;23.30;;;;;;;-0.08;85.32;101606.77;123650;1099;104408;-75
2024/01/24 03:14:44;;;;;;;45.20;22.97;;;;;;;-0.10;84.94;101609.95;123472;1099;104395;-76
2024/01/24 03:17:15;;;;;;;45.45;22.85;;;;;;;-0.12;85.01;101612.38;123413;1099;104275;-75
2024/01/24 03:19:46;;;;;;;48.50;23.33;;;;;;;-0.13;85.06;101613.13;123824;1099;104396;-75
2024/01/24 03:22:18;;;;;;;47.50;23.37;;;;;;;-0.13;85.04;101613.13;123651;1099;104274;-75
2024/01/24 03:24:49;;;;;;;46.53;22.63;;;;;;;-0.14;85.32;101613.91;123722;1099;104351;-76
2024/01/24 03:27:20;;;;;;;47.83;23.10;;;;;;;-0.16;85.44;101610.25;123633;1099;104323;-75
2024/01/24 03:29:51;;;;;;;48.40;23.80;;;;;;;-0.16;85.55;101614.52;123573;1099;104529;-75
2024/01/24 03:32:23;;;;;;;48.87;23.17;;;;;;;-0.20;85.50;101618.48;123544;1099;104354;-76
2024/01/24 03:34:59;;;;;;;47.93;22.97;;;;;;;-0.22;85.13;101614.82;123656;1099;104322;-76
2024/01/24 03:37:30;;;;;;;47.43;22.97;;;;;;;-0.24;85.16;101612.09;123654;1098;104335;-76
2024/01/24 03:40:01;;;;;;;47.20;22.50;;;;;;;-0.26;85.56;101612.73;123659;1099;104268;-76
2024/01/24 03:42:32;;;;;;;49.97;24.40;;;;;;;-0.25;85.75;101624.84;123727;1099;104727;-76
2024/01/24 03:45:04;;;;;;;49.70;24.80;;;;;;;-0.26;85.25;101615.31;123574;1099;104207;-76
2024/01/24 03:47:35;;;;;;;49.63;25.47;;;;;;;-0.28;85.19;101616.80;123261;1099;104399;-76
2024/01/24 03:50:07;;;;;;;50.23;24.27;;;;;;;-0.30;85.50;101623.50;123620;1099;104419;-76
2024/01/24 03:52:38;;;;;;;50.97;25.07;;;;;;;-0.32;85.27;101622.45;123704;1099;104271;-76
2024/01/24 03:55:10;;;;;;;51.35;24.50;;;;;;;-0.34;85.55;101622.30;123724;1099;104280;-76
2024/01/24 03:57:42;;;;;;;48.93;24.30;;;;;;;-0.37;85.94;101622.90;123776;1099;104294;-76
2024/01/24 04:00:16;;;;;;;52.60;25.97;;;;;;;-0.36;85.40;101616.06;123812;1098;104252;-76
2024/01/24 04:02:47;;;;;;;50.47;25.10;;;;;;;-0.32;85.97;101622.45;123980;1099;104261;-76
2024/01/24 04:05:19;;;;;;;50.83;24.07;;;;;;;-0.31;85.88;101629.41;123628;1099;104371;-76
2024/01/24 04:07:50;;;;;;;54.20;25.97;;;;;;;-0.32;85.33;101633.66;123622;1099;104277;-76
2024/01/24 04:10:21;;;;;;;55.00;26.15;;;;;;;-0.35;86.15;101628.20;123596;1099;104242;-76
2024/01/24 04:12:52;;;;;;;51.33;25.57;;;;;;;-0.34;85.80;101631.69;123681;1099;104329;-76
2024/01/24 04:15:23;;;;;;;53.03;24.80;;;;;;;-0.35;85.66;101630.79;123621;1099;104302;-76
2024/01/24 04:17:54;;;;;;;53.40;25.73;;;;;;;-0.35;85.98;101623.05;123616;1099;104307;-76
2024/01/24 04:20:26;;;;;;;54.10;25.37;;;;;;;-0.30;86.50;101626.08;123589;1099;104277;-76
2024/01/24 04:22:58;;;;;;;52.23;26.23;;;;;;;-0.30;85.74;101620.92;123571;1099;104354;-76
2024/01/24 04:25:29;;;;;;;53.40;26.35;;;;;;;-0.29;85.73;101628.80;123687;1099;104278;-76
2024/01/24 04:28:01;;;;;;;49.30;24.80;;;;;;;-0.31;86.04;101624.25;123365;1099;104463;-76
2024/01/24 04:30:32;;;;;;;51.30;24.37;;;;;;;-0.35;86.22;101623.05;123624;1099;104329;-76
2024/01/24 04:33:04;;;;;;;52.57;25.40;;;;;;;-0.39;85.85;101628.66;123644;1099;104275;-77
2024/01/24 04:35:35;;;;;;;52.40;25.10;;;;;;;-0.42;86.13;101637.03;123586;1099;104354;-77
2024/01/24 04:38:06;;;;;;;51.40;25.20;;;;;;;-0.45;86.12;101623.83;123693;1098;104306;-76
2024/01/24 04:40:37;;;;;;;54.77;26.23;;;;;;;-0.47;85.76;101622.75;123599;1099;104322;-76
2024/01/24 04:43:08;;;;;;;53.93;26.50;;;;;;;-0.48;86.03;101625.18;123721;1099;104220;-77
2024/01/24 04:45:39;;;;;;;51.27;24.07;;;;;;;-0.48;86.61;101622.60;123639;1099;104389;-76
2024/01/24 04:48:11;;;;;;;52.73;25.93;;;;;;;-0.50;86.33;101631.86;123853;1099;104258;-78
2024/01/24 04:50:42;;;;;;;55.65;26.20;;;;;;;-0.51;86.80;101630.97;123759;1098;104291;-77
2024/01/24 04:53:13;;;;;;;56.90;26.70;;;;;;;-0.52;86.06;101629.14;123780;1099;104293;-76
2024/01/24 04:55:44;;;;;;;54.40;25.87;;;;;;;-0.53;86.20;101619.61;123639;1099;104303;-76
2024/01/24 04:58:15;;;;;;;51.60;25.50;;;;;;;-0.52;86.19;101629.14;123719;1099;104265;-77
2024/01/24 05:00:47;;;;;;;54.43;26.97;;;;;;;-0.52;86.80;101629.14;123761;1099;104325;-76
2024/01/24 05:03:19;;;;;;;53.30;26.10;;;;;;;-0.49;86.76;101633.70;123702;1099;104326;-75
2024/01/24 05:05:50;;;;;;;57.10;27.77;;;;;;;-0.48;87.04;101633.84;123456;1099;104398;-75
2024/01/24 05:08:21;;;;;;;54.50;26.30;;;;;;;-0.45;86.91;101630.64;123670;1099;104258;-76
2024/01/24 05:10:52;;;;;;;57.23;27.53;;;;;;;-0.42;86.24;101631.87;123800;1098;104356;-75
2024/01/24 05:13:23;;;;;;;57.83;28.27;;;;;;;-0.39;86.54;101631.23;123612;1099;104273;-75
2024/01/24 05:15:55;;;;;;;57.07;27.90;;;;;;;-0.33;86.47;101636.99;123620;1099;104254;-77
2024/01/24 05:18:26;;;;;;;54.53;27.13;;;;;;;-0.32;86.66;101631.09;123625;1099;104467;-75
2024/01/24 05:20:57;;;;;;;52.37;26.03;;;;;;;-0.29;87.37;101636.55;123775;1099;104220;-77
2024/01/24 05:23:28;;;;;;;55.57;27.23;;;;;;;-0.28;86.76;101635.80;123619;1099;104654;-76
2024/01/24 05:25:59;;;;;;;57.50;27.10;;;;;;;-0.27;87.46;101634.11;123500;1099;104251;-76
2024/01/24 05:28:31;;;;;;;52.97;26.40;;;;;;;-0.27;86.67;101624.69;123560;1099;104466;-76
2024/01/24 05:31:02;;;;;;;57.13;27.27;;;;;;;-0.25;87.12;101640.32;123862;1099;104387;-76
2024/01/24 05:33:33;;;;;;;57.70;27.73;;;;;;;-0.24;87.26;101627.57;123591;1099;104348;-76
2024/01/24 05:36:05;;;;;;;51.40;26.07;;;;;;;-0.21;86.81;101627.87;123720;1099;104985;-76
2024/01/24 05:38:37;;;;;;;53.10;26.53;;;;;;;-0.18;86.94;101616.95;123380;1099;104248;-75
2024/01/24 05:41:09;;;;;;;53.10;26.73;;;;;;;-0.16;87.57;101606.77;123677;1099;104233;-76
2024/01/24 05:43:40;;;;;;;54.57;26.40;;;;;;;-0.13;87.31;101604.49;123742;1099;117805;-75
2024/01/24 05:46:11;;;;;;;50.90;25.70;;;;;;;-0.11;87.70;101618.44;123576;1099;104302;-76
2024/01/24 05:48:42;;;;;;;52.37;24.90;;;;;;;-0.10;86.96;101617.69;123903;1099;104242;-76
2024/01/24 05:51:14;;;;;;;52.27;26.30;;;;;;;-0.07;87.54;101613.72;124056;1099;104210;-75
2024/01/24 05:53:46;;;;;;;53.50;26.90;;;;;;;-0.03;87.32;101621.00;124356;1098;104204;-76
2024/01/24 05:56:17;;;;;;;53.53;24.67;;;;;;;0.01;87.81;101610.97;124275;1099;104364;-75
2024/01/24 05:58:48;;;;;;;54.93;26.90;;;;;;;0.05;87.12;101602.74;124183;1099;104380;-75
2024/01/24 06:01:19;;;;;;;48.63;24.20;;;;;;;0.10;87.22;101605.01;123746;1099;104283;-76
2024/01/24 06:03:50;;;;;;;52.07;25.20;;;;;;;0.16;87.58;101607.28;124153;1099;104201;-75
2024/01/24 06:06:22;;;;;;;55.97;27.07;;;;;;;0.19;87.61;101604.98;124174;1099;104271;-75
2024/01/24 06:08:53;;;;;;;54.33;24.83;;;;;;;0.22;87.65;101604.34;124285;1099;104435;-76
2024/01/24 06:11:24;;;;;;;51.30;25.57;;;;;;;0.23;87.54;101601.02;124349;1099;104213;-76
2024/01/24 06:13:55;;;;;;;56.80;26.77;;;;;;;0.22;87.89;101597.53;124750;1099;104376;-77
2024/01/24 06:16:27;;;;;;;56.63;28.30;;;;;;;0.23;87.57;101608.76;124522;1099;104348;-76
2024/01/24 06:18:58;;;;;;;52.10;25.50;;;;;;;0.24;87.96;101598.58;124513;1099;104229;-76
2024/01/24 06:21:29;;;;;;;54.40;25.77;;;;;;;0.26;88.05;101601.30;124329;1099;104331;-75
2024/01/24 06:24:00;;;;;;;53.43;26.57;;;;;;;0.29;87.74;101591.27;124560;1099;104258;-74
2024/01/24 06:26:31;;;;;;;54.27;26.50;;;;;;;0.37;87.95;101591.98;124701;1099;104249;-75
2024/01/24 06:29:04;;;;;;;47.40;24.03;;;;;;;0.41;87.65;101591.52;124958;1099;104242;-74
2024/01/24 06:31:35;;;;;;;50.70;25.23;;;;;;;0.43;87.70;101595.14;124912;1099;104273;-75
2024/01/24 06:34:06;;;;;;;50.77;24.60;;;;;;;0.44;87.84;101594.39;124889;1099;104220;-75
2024/01/24 06:36:37;;;;;;;50.23;24.33;;;;;;;0.45;87.85;101589.37;124680;1099;104280;-74
2024/01/24 06:39:09;;;;;;;50.33;26.37;;;;;;;0.48;87.48;101587.08;124975;1099;104168;-74
2024/01/24 06:41:42;;;;;;;50.23;24.37;;;;;;;0.51;87.60;101594.18;124423;1099;104243;-75
2024/01/24 06:44:14;;;;;;;48.90;24.00;;;;;;;0.54;87.33;101599.63;124628;1099;104245;-75
2024/01/24 06:46:47;;;;;;;48.43;24.73;;;;;;;0.55;87.71;101596.30;124766;1098;103710;-75
2024/01/24 06:49:31;;;;;;;51.10;25.53;;;;;;;0.55;88.07;101591.12;124559;1099;104245;-75
2024/01/24 06:52:39;;;;;;;50.80;26.25;;;;;;;0.57;87.88;101617.10;126744;1099;101793;-75
2024/01/24 06:55:13;;;;;;;52.67;26.60;;;;;;;0.57;87.92;101614.52;126160;1099;113260;-76
2024/01/24 06:57:44;;;;;;;53.23;26.17;;;;;;;0.59;88.11;101618.14;126932;1099;101380;-76
2024/01/24 07:00:19;;;;;;;50.78;25.52;;;;;;;0.58;87.89;101611.15;126622;1098;103971;-75
2024/01/24 07:02:50;;;;;;;50.03;24.50;;;;;;;0.61;87.96;101617.53;126770;1098;102510;-75
2024/01/24 07:05:22;;;;;;;49.27;25.10;;;;;;;0.65;88.08;101617.03;126803;1098;101799;-75
2024/01/24 07:07:53;;;;;;;49.10;25.27;;;;;;;0.69;88.12;101608.81;125964;1099;102623;-75
2024/01/24 07:10:25;;;;;;;49.07;24.93;;;;;;;0.73;87.97;101596.17;126524;1098;101809;-75
2024/01/24 07:17:09;;;;;;;45.37;24.00;;;;;;;0.82;88.30;101597.03;126362;1099;106958;-76
2024/01/24 07:20:32;;;;;;;;;;;;;;;;;;;;;
2024/01/24 07:23:11;;;;;;;;;;;;;;;0.92;88.18;101593.60;126158;1099;102118;-75
2024/01/24 07:25:42;;;;;;;54.50;27.60;;;;;;;0.96;87.76;101590.55;126650;1098;102602;-75
2024/01/24 07:28:14;;;;;;;49.43;24.33;;;;;;;1.03;87.92;101593.83;126776;1099;104245;-75
2024/01/24 07:30:45;;;;;;;49.50;25.53;;;;;;;1.11;88.18;101585.84;126701;1099;102102;-76
2024/01/24 07:33:16;;;;;;;49.77;25.83;;;;;;;1.22;88.47;101585.16;126877;1099;101499;-75
2024/01/24 07:35:48;;;;;;;53.37;27.23;;;;;;;1.34;88.10;101593.10;126624;1099;102654;-75
2024/01/24 07:38:21;;;;;;;53.93;27.00;;;;;;;1.43;88.61;101596.52;124754;1099;102208;-75
2024/01/24 07:41:04;;;;;;;50.30;26.67;;;;;;;1.49;88.22;101599.66;124949;1098;102838;-75
2024/01/24 07:43:35;;;;;;;50.30;25.80;;;;;;;1.53;88.17;101601.75;124518;1099;104547;-75
2024/01/24 07:46:07;;;;;;;55.47;27.07;;;;;;;1.55;88.13;101597.62;125243;1099;104226;-75
2024/01/24 07:48:38;;;;;;;54.20;27.43;;;;;;;1.57;87.82;101595.16;125051;1099;104229;-75
2024/01/24 07:51:10;;;;;;;50.27;26.73;;;;;;;1.60;88.32;101592.85;125068;1099;104207;-75
2024/01/24 07:53:43;;;;;;;;;;;;;;;1.65;87.94;101595.84;125248;1098;104171;-75
2024/01/24 07:56:15;;;;;;;50.30;25.97;;;;;;;1.72;88.45;101588.77;125045;1099;104169;-74
2024/01/24 07:58:48;;;;;;;53.40;28.30;;;;;;;1.77;88.22;101594.35;125245;1099;104237;-75
2024/01/24 08:01:20;;;;;;;53.30;28.00;;;;;;;1.83;88.01;101591.41;126621;1098;102869;-74
2024/01/24 08:03:51;;;;;;;51.80;27.10;;;;;;;1.92;88.28;101597.39;126689;1098;103144;-75
2024/01/24 08:06:23;;;;;;;54.17;28.20;;;;;;;2.02;88.70;101601.69;126493;1099;102228;-75
2024/01/24 08:08:54;;;;;;;55.63;29.07;;;;;;;2.11;88.84;101605.08;126476;1098;102973;-74
2024/01/24 08:11:26;;;;;;;86.97;43.30;;;;;;;2.20;88.50;101608.48;126820;1098;103230;-74
2024/01/24 08:13:58;;;;;;;69.97;35.67;;;;;;;2.26;88.59;101608.08;126675;1099;101362;-75
2024/01/24 08:16:31;;;;;;;60.50;33.53;;;;;;;2.26;88.61;101610.67;126481;1098;102331;-75
2024/01/24 08:19:03;;;;;;;59.37;31.63;;;;;;;2.29;88.16;101610.94;126741;1098;102105;-75
2024/01/24 08:21:34;;;;;;;61.10;33.67;;;;;;;2.33;88.47;101594.89;126648;1099;102301;-75
2024/01/24 08:24:10;;;;;;;60.77;33.30;;;;;;;2.42;87.88;101589.61;126767;1099;101860;-74
2024/01/24 08:26:44;;;;;;;62.43;34.03;;;;;;;2.53;88.11;101587.94;126185;1098;103120;-75
2024/01/24 08:29:18;;;;;;;60.43;34.63;;;;;;;2.60;88.28;101579.89;126673;1099;101832;-75
2024/01/24 08:31:51;;;;;;;60.13;33.37;;;;;;;2.66;87.88;101580.41;126631;1099;101897;-75
2024/01/24 08:34:23;;;;;;;61.90;34.80;;;;;;;2.72;88.16;101580.03;126628;1099;102345;-75
2024/01/24 08:36:56;;;;;;;60.40;34.03;;;;;;;2.80;88.01;101579.88;126483;1099;102460;-75
2024/01/24 08:39:27;;;;;;;60.87;33.67;;;;;;;2.90;88.43;101570.28;126701;1099;102525;-75
2024/01/24 08:42:01;;;;;;;60.53;34.07;;;;;;;2.97;88.79;101564.84;126168;1099;102631;-75
2024/01/24 08:44:32;;;;;;;62.58;34.73;;;;;;;3.05;88.36;101563.78;126847;1099;102463;-74
2024/01/24 08:47:04;;;;;;;64.97;35.33;;;;;;;3.14;88.91;101574.92;126688;1099;102733;-75
2024/01/24 08:49:36;;;;;;;63.40;35.67;;;;;;;3.20;88.46;101565.05;126715;1099;101867;-75
2024/01/24 08:52:08;;;;;;;66.63;35.57;;;;;;;3.28;88.20;101564.79;126098;1099;102527;-75
2024/01/24 08:54:39;;;;;;;60.50;33.97;;;;;;;3.34;87.91;101562.70;126163;1099;102838;-75
2024/01/24 08:57:11;;;;;;;58.40;31.83;;;;;;;3.41;88.24;101563.32;126722;1098;103144;-75
2024/01/24 08:59:44;;;;;;;60.13;33.70;;;;;;;3.46;88.99;101561.09;126648;1098;102375;-75
2024/01/24 09:02:15;;;;;;;62.15;34.20;;;;;;;3.53;88.77;101560.80;126706;1098;102844;-75
2024/01/24 09:04:48;;;;;;;58.00;33.47;;;;;;;3.59;88.87;101558.70;126614;1099;102656;-74
2024/01/24 09:07:22;;;;;;;58.63;32.43;;;;;;;3.67;88.26;101559.31;126736;1098;102564;-75
2024/01/24 09:09:53;;;;;;;61.03;34.20;;;;;;;3.79;88.64;101556.80;126845;1098;102649;-75
2024/01/24 09:12:25;;;;;;;61.40;33.07;;;;;;;3.86;88.82;101547.80;126645;1099;101746;-75
2024/01/24 09:14:56;;;;;;;62.77;34.43;;;;;;;3.94;88.36;101532.05;126738;1098;102032;-75
2024/01/24 09:17:27;;;;;;;67.63;35.17;;;;;;;4.06;88.48;101532.09;126678;1098;101775;-75
2024/01/24 09:19:59;;;;;;;61.65;35.90;;;;;;;4.18;88.98;101520.88;125396;1099;102103;-74
2024/01/24 09:22:33;;;;;;;59.53;34.10;;;;;;;4.33;88.81;101516.83;124986;1099;102628;-75
2024/01/24 09:25:05;;;;;;;61.93;32.93;;;;;;;4.44;88.76;101508.19;124847;1099;104322;-74
2024/01/24 09:27:36;;;;;;;63.20;34.93;;;;;;;4.53;88.53;101499.27;124792;1099;104204;-74
2024/01/24 09:30:10;;;;;;;58.77;33.73;;;;;;;4.63;88.77;101497.48;125001;1099;104268;-74
2024/01/24 09:32:45;;;;;;;60.10;33.40;;;;;;;4.74;89.10;101481.80;124627;1099;104238;-75
2024/01/24 09:35:19;;;;;;;59.75;33.35;;;;;;;4.86;88.83;101487.88;124482;1099;104245;-74
2024/01/24 09:38:08;;;;;;;59.13;33.30;;;;;;;4.95;88.85;101482.47;124831;1099;104297;-74
2024/01/24 09:40:41;;;;;;;59.50;33.33;;;;;;;5.06;88.32;101468.55;124681;1099;103286;-74
2024/01/24 09:43:13;;;;;;;59.17;33.23;;;;;;;5.17;88.61;101457.26;125010;1099;104230;-74
2024/01/24 09:45:47;;;;;;;60.03;32.73;;;;;;;5.26;88.64;101451.80;124865;1099;104213;-74
2024/01/24 09:48:19;;;;;;;64.27;34.70;;;;;;;5.33;88.90;101447.92;124607;1099;104249;-74
2024/01/24 09:50:50;;;;;;;59.17;32.73;;;;;;;5.42;88.17;101443.37;124775;1099;104350;-74
2024/01/24 09:53:24;;;;;;;59.53;33.87;;;;;;;5.48;88.47;101430.80;124812;1099;104252;-74
2024/01/24 09:55:56;;;;;;;53.83;31.68;;;;;;;5.49;87.73;101424.81;124880;1099;104166;-74
2024/01/24 09:58:28;;;;;;;60.70;34.40;;;;;;;5.52;87.45;101413.72;124732;1099;101954;-74
2024/01/24 10:01:01;;;;;;;59.70;33.80;;;;;;;5.56;88.20;101407.91;124905;1099;104178;-74
2024/01/24 10:03:33;;;;;;;62.17;33.67;;;;;;;5.67;88.49;101401.78;125211;1099;102149;-75
2024/01/24 10:06:05;;;;;;;58.57;31.57;;;;;;;5.71;88.27;101388.16;124950;1098;104287;-74
2024/01/24 10:08:36;;;;;;;57.07;31.73;;;;;;;5.71;87.85;101382.05;125267;1099;104231;-74
2024/01/24 10:11:08;;;;;;;55.77;30.80;;;;;;;5.71;88.33;101375.13;124729;1099;102705;-75
2024/01/24 10:13:40;;;;;;;56.87;31.27;;;;;;;5.76;88.37;101368.56;125058;1098;104185;-74
2024/01/24 10:16:12;;;;;;;54.47;29.87;;;;;;;5.85;87.60;101363.06;124840;1099;104622;-74
2024/01/24 10:18:44;;;;;;;51.60;28.67;;;;;;;5.87;87.50;101356.25;124626;1098;104169;-75
2024/01/24 10:21:17;;;;;;;47.40;27.20;;;;;;;5.81;87.08;101348.02;124805;1099;102384;-74
2024/01/24 10:23:48;;;;;;;50.93;28.27;;;;;;;5.81;87.65;101349.72;124783;1099;104235;-74
2024/01/24 10:26:21;;;;;;;44.50;24.57;;;;;;;5.86;88.24;101345.72;124687;1099;104418;-75
2024/01/24 10:32:11;;;;;;;30.87;16.57;;;;;;;5.69;87.09;101324.66;126196;1098;101435;-75
2024/01/24 10:34:42;;;;;;;29.43;14.93;;;;;;;5.61;87.43;101319.71;127025;1099;101965;-75
2024/01/24 10:37:16;;;;;;;26.63;13.47;;;;;;;5.57;87.24;101323.81;126674;1099;102674;-75
2024/01/24 10:39:48;;;;;;;;;;;;;;;5.60;86.16;101305.80;124588;1099;104168;-75
2024/01/24 10:42:20;;;;;;;25.30;11.43;;;;;;;5.59;87.18;101301.37;124961;1099;104360;-74
2024/01/24 10:44:53;;;;;;;22.00;10.33;;;;;;;5.63;87.04;101295.59;124859;1099;104171;-75
2024/01/24 10:47:25;;;;;;;19.83;9.23;;;;;;;5.64;85.70;101287.00;124859;1099;104709;-76
2024/01/24 10:49:57;;;;;;;22.93;9.37;;;;;;;5.65;86.31;101280.08;124807;1099;104223;-74
2024/01/24 10:52:28;;;;;;;26.83;10.00;;;;;;;5.67;86.83;101281.07;124583;1099;104328;-74
2024/01/24 10:55:04;;;;;;;25.03;10.27;;;;;;;5.69;86.35;101274.29;124954;1099;104303;-74
2024/01/24 10:57:36;;;;;;;26.20;11.67;;;;;;;5.68;86.28;101264.66;124676;1099;104182;-74
2024/01/24 11:00:10;;;;;;;27.27;11.03;;;;;;;5.70;86.29;101253.56;125135;1099;103763;-74
2024/01/24 11:02:48;;;;;;;27.40;11.75;;;;;;;5.73;86.10;101256.38;125547;1099;104383;-75
2024/01/24 11:05:39;;;;;;;28.30;12.75;;;;;;;5.78;86.15;101255.76;125055;1099;104195;-75
2024/01/24 11:08:48;;;;;;;26.07;12.27;;;;;;;5.78;86.07;101253.16;125283;1099;103625;-74
2024/01/24 11:11:22;;;;;;;26.07;12.10;;;;;;;5.80;85.88;101243.73;126716;1098;102590;-74
2024/01/24 11:14:01;;;;;;;24.00;11.50;;;;;;;5.79;85.73;101234.13;126096;1098;104232;-75
2024/01/24 11:16:39;;;;;;;30.10;13.53;;;;;;;5.76;85.87;101233.14;125365;1099;102247;-75
2024/01/24 11:19:24;;;;;;;32.43;14.07;;;;;;;5.75;85.37;101226.12;125378;1099;103057;-74
2024/01/24 11:22:09;;;;;;;31.40;14.15;;;;;;;5.73;85.30;101214.70;125335;1099;108590;-74
2024/01/24 11:24:58;;;;;;;28.73;14.18;;;;;;;5.71;85.65;101213.68;125159;1099;104221;-75
2024/01/24 11:27:41;;;;;;;29.63;13.20;;;;;;;5.71;84.88;101218.89;124901;1099;104360;-75
2024/01/24 11:30:38;;;;;;;24.57;12.13;;;;;;;5.69;84.71;101203.98;124745;1099;103135;-75
2024/01/24 11:33:17;;;;;;;23.30;11.63;;;;;;;5.66;85.04;101199.46;125038;1098;102601;-74
2024/01/24 11:36:03;;;;;;;25.80;12.07;;;;;;;5.66;85.17;101194.25;125047;1099;103245;-74